createdAt,value
2022-08-02T00:01:00.311Z,16.17
2022-08-02T00:03:27.391Z,16.07
2022-08-02T00:05:54.505Z,16.07
2022-08-02T00:08:22.912Z,16.12
2022-08-02T00:10:50.401Z,16.21
2022-08-02T00:13:17.670Z,16.36
2022-08-02T00:15:44.749Z,16.44
2022-08-02T00:18:11.798Z,16.35
2022-08-02T00:20:39.114Z,16.30
2022-08-02T00:23:06.274Z,16.31
2022-08-02T00:25:33.368Z,16.28
2022-08-02T00:28:00.437Z,16.36
2022-08-02T00:30:27.506Z,16.48
2022-08-02T00:32:54.560Z,16.58
2022-08-02T00:35:21.615Z,16.65
2022-08-02T00:37:48.766Z,16.69
2022-08-02T00:40:15.873Z,16.71
2022-08-02T00:42:44.309Z,16.69
2022-08-02T00:45:11.587Z,16.71
2022-08-02T00:47:38.682Z,16.75
2022-08-02T00:50:06.633Z,16.76
2022-08-02T00:52:33.769Z,16.70
2022-08-02T00:55:00.817Z,16.70
2022-08-02T00:57:27.856Z,16.73
2022-08-02T00:59:54.909Z,16.71
2022-08-02T01:02:22.056Z,16.65
2022-08-02T01:04:49.121Z,16.54
2022-08-02T01:07:16.173Z,16.48
2022-08-02T01:09:46.930Z,16.45
2022-08-02T01:12:15.959Z,16.43
2022-08-02T01:14:51.429Z,16.42
2022-08-02T01:17:55.049Z,16.41
2022-08-02T01:20:53.211Z,16.45
2022-08-02T01:24:11.398Z,16.58
2022-08-02T01:27:24.017Z,16.67
2022-08-02T01:30:00.807Z,16.76
2022-08-02T01:32:45.989Z,16.71
2022-08-02T01:35:50.670Z,16.61
2022-08-02T01:38:34.768Z,16.51
2022-08-02T01:41:09.813Z,16.51
2022-08-02T01:43:43.830Z,16.50
2022-08-02T01:46:16.687Z,16.53
2022-08-02T01:48:48.839Z,16.52
2022-08-02T01:51:44.224Z,16.48
2022-08-02T01:54:19.368Z,16.43
2022-08-02T01:56:51.918Z,16.43
2022-08-02T01:59:25.111Z,16.41
2022-08-02T02:01:59.768Z,16.44
2022-08-02T02:04:32.156Z,16.45
2022-08-02T02:07:02.954Z,16.43
2022-08-02T02:09:47.852Z,16.43
2022-08-02T02:12:20.628Z,16.44
2022-08-02T02:14:52.052Z,16.41
2022-08-02T02:17:53.023Z,16.29
2022-08-02T02:20:22.220Z,16.22
2022-08-02T02:22:51.153Z,16.27
2022-08-02T02:25:26.857Z,16.37
2022-08-02T02:28:11.944Z,16.45
2022-08-02T02:30:48.668Z,16.55
2022-08-02T02:33:22.669Z,16.59
2022-08-02T02:35:54.214Z,16.62
2022-08-02T02:38:24.762Z,16.63
2022-08-02T02:40:54.652Z,16.64
2022-08-02T02:43:28.092Z,16.63
2022-08-02T02:45:57.828Z,16.61
2022-08-02T02:48:29.453Z,16.56
2022-08-02T02:50:58.865Z,16.52
2022-08-02T02:53:28.735Z,16.45
2022-08-02T02:56:19.729Z,16.25
2022-08-02T02:58:48.629Z,16.15
2022-08-02T03:01:56.290Z,16.08
2022-08-02T03:04:17.898Z,16.01
2022-08-02T03:06:45.141Z,16.00
2022-08-02T03:09:13.014Z,15.99
2022-08-02T03:11:42.036Z,15.96
2022-08-02T03:14:12.671Z,15.98
2022-08-02T03:16:54.701Z,15.96
2022-08-02T03:19:23.946Z,15.99
2022-08-02T03:22:00.250Z,16.06
2022-08-02T03:24:27.810Z,16.10
2022-08-02T03:26:56.438Z,16.13
2022-08-02T03:29:23.438Z,16.12
2022-08-02T03:31:52.435Z,16.15
2022-08-02T03:34:20.763Z,16.18
2022-08-02T03:36:55.532Z,16.22
2022-08-02T03:39:25.679Z,16.18
2022-08-02T03:41:56.295Z,16.08
2022-08-02T03:44:26.639Z,15.96
2022-08-02T03:46:55.350Z,15.91
2022-08-02T03:49:24.991Z,15.93
2022-08-02T03:51:54.473Z,16.00
2022-08-02T03:54:23.203Z,15.96
2022-08-02T03:57:02.691Z,15.92
2022-08-02T03:59:32.589Z,15.86
2022-08-02T04:01:59.749Z,15.87
2022-08-02T04:04:30.540Z,15.88
2022-08-02T04:06:57.520Z,15.87
2022-08-02T04:09:24.921Z,15.86
2022-08-02T04:11:51.933Z,15.84
2022-08-02T04:14:19.768Z,15.87
2022-08-02T04:17:04.754Z,15.80
2022-08-02T04:19:53.818Z,15.92
2022-08-02T04:22:39.538Z,16.02
2022-08-02T04:25:17.202Z,16.09
2022-08-02T04:28:15.299Z,16.17
2022-08-02T04:30:37.583Z,16.17
2022-08-02T04:33:07.176Z,16.14
2022-08-02T04:35:34.616Z,16.03
2022-08-02T04:38:05.758Z,16.02
2022-08-02T04:40:38.195Z,16.04
2022-08-02T04:43:05.527Z,16.08
2022-08-02T04:45:34.113Z,16.05
2022-08-02T04:48:05.115Z,16.05
2022-08-02T04:50:33.544Z,16.06
2022-08-02T04:53:00.747Z,16.12
2022-08-02T04:55:30.519Z,16.13
2022-08-02T04:57:59.702Z,16.18
2022-08-02T05:00:29.889Z,16.20
2022-08-02T05:02:58.949Z,16.23
2022-08-02T05:05:27.449Z,16.33
2022-08-02T05:07:55.856Z,16.37
2022-08-02T05:10:24.112Z,16.46
2022-08-02T05:12:51.221Z,16.61
2022-08-02T05:15:18.792Z,16.75
2022-08-02T05:17:48.999Z,16.92
2022-08-02T05:20:20.654Z,17.05
2022-08-02T05:22:48.062Z,17.34
2022-08-02T05:25:15.964Z,17.58
2022-08-02T05:27:42.957Z,17.86
2022-08-02T05:30:11.736Z,18.11
2022-08-02T05:32:52.749Z,18.25
2022-08-02T05:35:25.023Z,18.26
2022-08-02T05:37:52.638Z,18.33
2022-08-02T05:40:25.534Z,18.44
2022-08-02T05:42:54.968Z,18.58
2022-08-02T05:45:23.107Z,18.69
2022-08-02T05:47:50.329Z,18.67
2022-08-02T05:50:17.936Z,18.54
2022-08-02T05:53:04.675Z,18.58
2022-08-02T05:55:57.303Z,18.52
2022-08-02T05:58:53.178Z,18.64
2022-08-02T06:01:36.852Z,18.71
2022-08-02T06:04:11.473Z,18.76
2022-08-02T06:06:45.103Z,18.69
2022-08-02T06:09:23.048Z,18.55
2022-08-02T06:12:01.502Z,18.49
2022-08-02T06:14:34.072Z,18.48
2022-08-02T06:17:09.294Z,18.65
2022-08-02T06:19:51.527Z,19.15
2022-08-02T06:22:33.028Z,19.61
2022-08-02T06:25:06.322Z,19.81
2022-08-02T06:27:35.868Z,20.09
2022-08-02T06:30:09.639Z,20.09
2022-08-02T06:32:37.568Z,20.37
2022-08-02T06:35:05.823Z,20.49
2022-08-02T06:37:44.313Z,20.68
2022-08-02T06:40:40.699Z,20.91
2022-08-02T06:43:21.288Z,21.40
2022-08-02T06:45:48.370Z,21.57
2022-08-02T06:48:15.914Z,21.59
2022-08-02T06:50:44.337Z,21.53
2022-08-02T06:53:12.919Z,20.78
2022-08-02T06:55:43.258Z,20.98
2022-08-02T06:58:11.811Z,21.22
2022-08-02T07:00:39.133Z,21.32
2022-08-02T07:03:06.643Z,21.06
2022-08-02T07:05:34.768Z,21.74
2022-08-02T07:08:03.035Z,22.02
2022-08-02T07:10:30.264Z,22.38
2022-08-02T07:12:59.925Z,22.25
2022-08-02T07:15:27.316Z,22.32
2022-08-02T07:17:54.522Z,22.61
2022-08-02T07:20:21.621Z,22.24
2022-08-02T07:22:48.955Z,22.25
2022-08-02T07:25:16.495Z,22.00
2022-08-02T07:27:43.603Z,21.95
2022-08-02T07:30:11.590Z,22.41
2022-08-02T07:32:39.039Z,22.17
2022-08-02T07:35:07.756Z,22.12
2022-08-02T07:37:54.617Z,21.58
2022-08-02T07:40:25.136Z,22.08
2022-08-02T07:43:02.974Z,22.43
2022-08-02T07:45:35.786Z,22.65
2022-08-02T07:48:04.163Z,22.53
2022-08-02T07:50:31.283Z,22.39
2022-08-02T07:52:59.232Z,22.84
2022-08-02T07:55:39.651Z,22.62
2022-08-02T07:58:12.540Z,22.73
2022-08-02T08:00:40.967Z,23.29
2022-08-02T08:03:08.049Z,23.35
2022-08-02T08:05:35.095Z,23.24
2022-08-02T08:08:02.260Z,23.40
2022-08-02T08:10:29.253Z,23.55
2022-08-02T08:12:56.266Z,23.61
2022-08-02T08:15:23.321Z,23.45
2022-08-02T08:17:50.353Z,23.19
2022-08-02T08:20:17.535Z,22.88
2022-08-02T08:22:44.551Z,22.47
2022-08-02T08:25:11.547Z,22.05
2022-08-02T08:27:38.529Z,21.78
2022-08-02T08:30:06.394Z,22.28
2022-08-02T08:32:33.765Z,22.18
2022-08-02T08:35:00.791Z,22.31
2022-08-02T08:37:27.799Z,23.04
2022-08-02T08:39:58.207Z,23.33
2022-08-02T08:42:31.890Z,23.85
2022-08-02T08:45:00.636Z,24.36
2022-08-02T08:47:40.835Z,24.05
2022-08-02T08:50:24.815Z,24.16
2022-08-02T08:53:07.884Z,24.05
2022-08-02T08:55:37.729Z,24.34
2022-08-02T08:58:06.510Z,24.49
2022-08-02T09:00:37.024Z,24.23
2022-08-02T09:03:08.618Z,24.25
2022-08-02T09:05:39.202Z,24.76
2022-08-02T09:08:07.912Z,24.13
2022-08-02T09:10:48.474Z,24.08
2022-08-02T09:13:38.085Z,24.82
2022-08-02T09:16:12.690Z,24.17
2022-08-02T09:18:47.448Z,24.10
2022-08-02T09:21:17.630Z,24.77
2022-08-02T09:23:52.719Z,24.42
2022-08-02T09:26:23.930Z,24.69
2022-08-02T09:29:01.503Z,24.57
2022-08-02T09:31:28.822Z,24.81
2022-08-02T09:33:59.775Z,24.46
2022-08-02T09:36:47.831Z,24.19
2022-08-02T09:39:17.553Z,23.56
2022-08-02T09:41:45.767Z,23.21
2022-08-02T09:44:16.674Z,22.59
2022-08-02T09:46:46.687Z,22.60
2022-08-02T09:49:18.308Z,22.82
2022-08-02T09:51:57.025Z,23.80
2022-08-02T09:54:28.847Z,24.52
2022-08-02T09:57:01.989Z,24.81
2022-08-02T09:59:30.914Z,24.48
2022-08-02T10:02:17.493Z,23.93
2022-08-02T10:04:52.086Z,23.70
2022-08-02T10:07:23.361Z,23.31
2022-08-02T10:09:52.554Z,23.63
2022-08-02T10:12:23.438Z,23.66
2022-08-02T10:14:52.308Z,23.22
2022-08-02T10:17:21.679Z,23.16
2022-08-02T10:20:00.561Z,23.11
2022-08-02T10:22:34.760Z,22.94
2022-08-02T10:25:08.481Z,23.57
2022-08-02T10:28:02.922Z,24.30
2022-08-02T10:30:30.472Z,24.50
2022-08-02T10:33:03.868Z,23.74
2022-08-02T10:35:39.354Z,23.83
2022-08-02T10:38:13.099Z,24.18
2022-08-02T10:40:56.100Z,24.26
2022-08-02T10:43:31.951Z,24.26
2022-08-02T10:46:32.488Z,24.59
2022-08-02T10:49:38.135Z,24.97
2022-08-02T10:52:01.580Z,25.46
2022-08-02T10:54:38.957Z,25.77
2022-08-02T10:57:23.020Z,25.57
2022-08-02T10:59:57.819Z,25.18
2022-08-02T11:02:53.073Z,24.62
2022-08-02T11:05:43.249Z,24.23
2022-08-02T11:08:22.960Z,23.54
2022-08-02T11:10:50.100Z,23.52
2022-08-02T11:13:20.014Z,23.53
2022-08-02T11:16:11.186Z,23.90
2022-08-02T11:18:44.874Z,24.07
2022-08-02T11:21:34.371Z,24.22
2022-08-02T11:24:33.405Z,24.42
2022-08-02T11:27:08.703Z,24.78
2022-08-02T11:29:45.029Z,24.72
2022-08-02T11:32:31.051Z,24.77
2022-08-02T11:35:00.593Z,24.48
2022-08-02T11:37:45.504Z,24.32
2022-08-02T11:40:19.624Z,24.46
2022-08-02T11:42:50.735Z,24.79
2022-08-02T11:45:28.964Z,24.85
2022-08-02T11:47:57.320Z,24.77
2022-08-02T11:50:29.669Z,24.73
2022-08-02T11:52:58.030Z,24.69
2022-08-02T11:55:32.608Z,24.47
2022-08-02T11:58:07.962Z,24.62
2022-08-02T12:00:36.186Z,24.77
2022-08-02T12:03:03.451Z,25.02
2022-08-02T12:06:05.125Z,25.11
2022-08-02T12:08:22.448Z,25.11
2022-08-02T12:10:52.962Z,25.15
2022-08-02T12:13:20.374Z,25.14
2022-08-02T12:15:48.024Z,25.31
2022-08-02T12:18:39.291Z,25.38
2022-08-02T12:21:26.332Z,25.34
2022-08-02T12:24:00.584Z,25.21
2022-08-02T12:26:30.583Z,25.27
2022-08-02T12:28:59.522Z,25.30
2022-08-02T12:31:56.365Z,25.30
2022-08-02T12:34:29.971Z,25.45
2022-08-02T12:37:11.141Z,25.59
2022-08-02T12:39:50.025Z,25.51
2022-08-02T12:42:17.720Z,25.39
2022-08-02T12:44:58.928Z,25.36
2022-08-02T12:47:31.287Z,25.32
2022-08-02T12:50:37.263Z,25.47
2022-08-02T12:53:17.707Z,25.78
2022-08-02T12:55:59.830Z,26.04
2022-08-02T12:58:31.705Z,26.12
2022-08-02T13:01:02.267Z,25.85
2022-08-02T13:04:11.855Z,25.67
2022-08-02T13:06:42.024Z,25.86
2022-08-02T13:09:17.615Z,26.16
2022-08-02T13:11:46.369Z,26.23
2022-08-02T13:14:15.568Z,26.03
2022-08-02T13:16:47.009Z,26.00
2022-08-02T13:19:15.819Z,26.12
2022-08-02T13:22:01.049Z,26.24
2022-08-02T13:24:41.134Z,26.37
2022-08-02T13:27:16.023Z,26.48
2022-08-02T13:29:43.439Z,26.74
2022-08-02T13:32:10.850Z,26.91
2022-08-02T13:34:38.150Z,26.84
2022-08-02T13:37:05.263Z,26.96
2022-08-02T13:39:32.463Z,26.88
2022-08-02T13:41:59.560Z,26.75
2022-08-02T13:44:26.663Z,26.95
2022-08-02T13:46:53.702Z,27.17
2022-08-02T13:49:21.934Z,26.96
2022-08-02T13:52:08.662Z,27.25
2022-08-02T13:54:36.443Z,27.41
2022-08-02T13:57:04.097Z,27.81
2022-08-02T13:59:57.262Z,28.22
2022-08-02T14:02:18.396Z,28.10
2022-08-02T14:04:46.026Z,28.46
2022-08-02T14:07:13.098Z,28.50
2022-08-02T14:09:40.415Z,28.09
2022-08-02T14:12:15.636Z,28.26
2022-08-02T14:14:42.892Z,28.18
2022-08-02T14:17:11.273Z,28.34
2022-08-02T14:19:38.569Z,28.43
2022-08-02T14:22:21.179Z,28.48
2022-08-02T14:24:48.609Z,28.38
2022-08-02T14:27:16.047Z,28.12
2022-08-02T14:29:43.258Z,28.25
2022-08-02T14:32:10.694Z,28.46
2022-08-02T14:34:37.988Z,28.39
2022-08-02T14:37:05.188Z,28.53
2022-08-02T14:39:43.240Z,28.59
2022-08-02T14:42:21.115Z,28.43
2022-08-02T14:44:48.160Z,28.22
2022-08-02T14:47:15.593Z,28.57
2022-08-02T14:49:45.954Z,28.58
2022-08-02T14:52:15.942Z,28.74
2022-08-02T14:54:43.303Z,29.19
2022-08-02T14:57:11.671Z,29.55
2022-08-02T14:59:42.290Z,30.01
2022-08-02T15:02:10.958Z,29.63
2022-08-02T15:04:43.314Z,29.28
2022-08-02T15:07:12.159Z,29.77
2022-08-02T15:09:39.558Z,29.33
2022-08-02T15:12:13.920Z,29.07
2022-08-02T15:14:42.605Z,29.25
2022-08-02T15:17:11.048Z,29.07
2022-08-02T15:20:00.127Z,28.95
2022-08-02T15:22:29.055Z,29.01
2022-08-02T15:24:56.206Z,28.72
2022-08-02T15:27:23.744Z,28.71
2022-08-02T15:29:50.776Z,28.88
2022-08-02T15:32:19.760Z,28.89
2022-08-02T15:34:48.026Z,28.60
2022-08-02T15:37:15.335Z,28.24
2022-08-02T15:39:42.372Z,27.99
2022-08-02T15:42:14.901Z,27.73
2022-08-02T15:44:42.097Z,27.56
2022-08-02T15:47:09.444Z,27.35
2022-08-02T15:49:41.079Z,27.16
2022-08-02T15:52:08.847Z,27.38
2022-08-02T15:54:35.987Z,27.47
2022-08-02T15:57:03.194Z,27.60
2022-08-02T15:59:30.311Z,27.76
2022-08-02T16:01:57.447Z,27.96
2022-08-02T16:04:24.615Z,28.28
2022-08-02T16:06:51.596Z,28.09
2022-08-02T16:09:18.749Z,28.14
2022-08-02T16:11:45.757Z,27.95
2022-08-02T16:14:12.790Z,27.97
2022-08-02T16:16:40.480Z,28.14
2022-08-02T16:19:46.586Z,28.23
2022-08-02T16:21:56.364Z,28.38
2022-08-02T16:24:23.866Z,28.17
2022-08-02T16:26:50.776Z,28.18
2022-08-02T16:29:19.791Z,28.10
2022-08-02T16:31:48.216Z,27.72
2022-08-02T16:34:16.834Z,27.58
2022-08-02T16:36:45.129Z,27.38
2022-08-02T16:39:12.913Z,27.10
2022-08-02T16:41:52.228Z,27.08
2022-08-02T16:44:29.412Z,27.10
2022-08-02T16:47:00.571Z,26.94
2022-08-02T16:50:06.961Z,26.98
2022-08-02T16:52:27.883Z,26.84
2022-08-02T16:54:55.628Z,26.70
2022-08-02T16:57:22.742Z,26.67
2022-08-02T16:59:50.863Z,26.77
2022-08-02T17:02:28.577Z,26.73
2022-08-02T17:04:56.750Z,26.75
2022-08-02T17:08:07.069Z,26.72
2022-08-02T17:10:12.928Z,26.76
2022-08-02T17:12:40.909Z,26.73
2022-08-02T17:16:01.054Z,26.68
2022-08-02T17:17:57.866Z,26.52
2022-08-02T17:20:25.193Z,26.35
2022-08-02T17:22:53.458Z,26.19
2022-08-02T17:25:24.795Z,26.09
2022-08-02T17:27:55.998Z,25.95
2022-08-02T17:30:26.975Z,25.82
2022-08-02T17:32:57.674Z,25.73
2022-08-02T17:35:43.459Z,25.73
2022-08-02T17:38:18.127Z,25.69
2022-08-02T17:40:56.021Z,25.52
2022-08-02T17:43:29.158Z,25.43
2022-08-02T17:46:00.471Z,25.38
2022-08-02T17:48:55.049Z,25.32
2022-08-02T17:52:16.003Z,25.20
2022-08-02T17:54:12.747Z,25.10
2022-08-02T17:56:42.348Z,24.94
2022-08-02T17:59:22.310Z,24.77
2022-08-02T18:02:03.577Z,24.63
2022-08-02T18:04:32.284Z,24.53
2022-08-02T18:07:04.607Z,24.38
2022-08-02T18:09:37.781Z,24.21
2022-08-02T18:12:15.870Z,24.05
2022-08-02T18:14:49.272Z,23.84
2022-08-02T18:17:17.158Z,23.65
2022-08-02T18:19:57.342Z,23.51
2022-08-02T18:22:28.310Z,23.30
2022-08-02T18:24:55.419Z,23.17
2022-08-02T18:27:22.696Z,23.10
2022-08-02T18:30:00.005Z,22.94
2022-08-02T18:33:55.167Z,22.83
2022-08-02T18:35:19.537Z,22.70
2022-08-02T18:37:52.180Z,22.53
2022-08-02T18:40:24.789Z,22.42
2022-08-02T18:42:53.188Z,22.36
2022-08-02T18:45:21.629Z,22.19
2022-08-02T18:47:51.058Z,22.08
2022-08-02T18:50:20.095Z,22.02
2022-08-02T18:52:50.376Z,21.93
2022-08-02T18:56:00.089Z,21.77
2022-08-02T18:58:17.888Z,21.56
2022-08-02T19:00:51.525Z,21.31
2022-08-02T19:03:20.302Z,21.15
2022-08-02T19:05:52.242Z,21.02
2022-08-02T19:08:25.654Z,20.94
2022-08-02T19:10:56.294Z,20.79
2022-08-02T19:13:24.460Z,20.72
2022-08-02T19:15:53.641Z,20.66
2022-08-02T19:18:26.825Z,20.59
2022-08-02T19:20:58.217Z,20.55
2022-08-02T19:23:29.669Z,20.59
2022-08-02T19:25:57.232Z,20.61
2022-08-02T19:28:26.049Z,20.59
2022-08-02T19:30:56.781Z,20.50
2022-08-02T19:34:05.687Z,20.46
2022-08-02T19:36:12.452Z,20.47
2022-08-02T19:38:44.318Z,20.43
2022-08-02T19:41:13.728Z,20.37
2022-08-02T19:44:26.683Z,20.33
2022-08-02T19:46:27.859Z,20.31
2022-08-02T19:48:55.122Z,20.28
2022-08-02T19:51:54.515Z,20.22
2022-08-02T19:54:10.516Z,20.13
2022-08-02T19:56:38.149Z,20.05
2022-08-02T19:59:13.220Z,19.99
2022-08-02T20:01:46.384Z,19.97
2022-08-02T20:04:23.141Z,19.93
2022-08-02T20:06:51.299Z,19.86
2022-08-02T20:09:22.917Z,19.80
2022-08-02T20:11:54.864Z,19.77
2022-08-02T20:14:27.369Z,19.74
2022-08-02T20:16:58.527Z,19.70
2022-08-02T20:19:29.183Z,19.66
2022-08-02T20:21:59.642Z,19.61
2022-08-02T20:24:27.636Z,19.62
2022-08-02T20:26:59.250Z,19.60
2022-08-02T20:29:42.925Z,19.54
2022-08-02T20:32:12.961Z,19.47
2022-08-02T20:34:40.202Z,19.42
2022-08-02T20:37:59.224Z,19.42
2022-08-02T20:39:54.307Z,19.41
2022-08-02T20:42:24.583Z,19.37
2022-08-02T20:44:55.731Z,19.32
2022-08-02T20:47:27.557Z,19.28
2022-08-02T20:50:15.268Z,19.26
2022-08-02T20:52:44.165Z,19.24
2022-08-02T20:55:17.235Z,19.24
2022-08-02T20:58:00.111Z,19.21
2022-08-02T21:00:28.708Z,19.18
2022-08-02T21:02:55.954Z,19.18
2022-08-02T21:05:43.853Z,19.14
2022-08-02T21:08:14.700Z,19.08
2022-08-02T21:10:52.108Z,19.01
2022-08-02T21:13:23.410Z,18.96
2022-08-02T21:15:54.115Z,18.89
2022-08-02T21:18:27.848Z,18.84
2022-08-02T21:21:09.133Z,18.78
2022-08-02T21:23:38.013Z,18.75
2022-08-02T21:26:09.047Z,18.71
2022-08-02T21:28:44.084Z,18.67
2022-08-02T21:31:15.777Z,18.62
2022-08-02T21:33:58.019Z,18.56
2022-08-02T21:36:33.976Z,18.47
2022-08-02T21:39:08.917Z,18.42
2022-08-02T21:41:46.469Z,18.37
2022-08-02T21:44:20.717Z,18.35
2022-08-02T21:46:52.903Z,18.29
2022-08-02T21:49:40.641Z,18.24
2022-08-02T21:52:13.197Z,18.20
2022-08-02T21:54:41.055Z,18.16
2022-08-02T21:57:16.347Z,18.13
2022-08-02T21:59:52.800Z,18.14
2022-08-02T22:02:30.506Z,18.13
2022-08-02T22:04:58.493Z,18.13
2022-08-02T22:07:25.661Z,18.08
2022-08-02T22:09:54.000Z,18.01
2022-08-02T22:12:26.459Z,17.98
2022-08-02T22:14:56.308Z,17.97
2022-08-02T22:17:51.036Z,17.92
2022-08-02T22:20:20.217Z,17.84
2022-08-02T22:22:52.101Z,17.78
2022-08-02T22:25:31.038Z,17.75
2022-08-02T22:28:37.312Z,17.76
2022-08-02T22:30:59.906Z,17.78
2022-08-02T22:33:47.068Z,17.79
2022-08-02T22:36:30.672Z,17.72
2022-08-02T22:38:58.924Z,17.69
2022-08-02T22:42:01.071Z,17.65
2022-08-02T22:44:14.774Z,17.60
2022-08-02T22:46:43.851Z,17.50
2022-08-02T22:49:36.837Z,17.48
2022-08-02T22:51:58.425Z,17.41
2022-08-02T22:54:25.433Z,17.41
2022-08-02T22:56:52.576Z,17.41
2022-08-02T22:59:20.144Z,17.39
2022-08-02T23:02:05.665Z,17.27
2022-08-02T23:04:32.854Z,17.19
2022-08-02T23:06:59.990Z,17.16
2022-08-02T23:09:27.293Z,17.07
2022-08-02T23:11:54.858Z,16.99
2022-08-02T23:14:22.124Z,16.98
2022-08-02T23:17:09.008Z,16.96
2022-08-02T23:19:51.257Z,16.96
2022-08-02T23:22:30.151Z,16.95
2022-08-02T23:25:06.445Z,16.92
2022-08-02T23:27:34.702Z,16.82
2022-08-02T23:30:02.479Z,16.82
2022-08-02T23:32:30.433Z,16.82
2022-08-02T23:34:59.040Z,16.75
2022-08-02T23:37:27.368Z,16.82
2022-08-02T23:39:54.400Z,16.75
2022-08-02T23:42:23.834Z,16.69
2022-08-02T23:44:52.021Z,16.68
2022-08-02T23:47:19.888Z,16.62
2022-08-02T23:49:47.488Z,16.66
2022-08-02T23:52:14.773Z,16.71
2022-08-02T23:54:42.058Z,16.65
2022-08-02T23:57:20.634Z,16.62
2022-08-02T23:59:51.394Z,16.59
